KDUB

Dubois Municipal Airport

Dubois, Wyoming, USA
METAR KDUB 181255Z AUTO 29012KT 10SM BKN048 OVC055 00/M07 A3004 RMK AO2
Observed Flight Rules
Dec-18 @ 12:55 UTC (20 minutes ago) Visual Flight Rules
Wind Visibility Clouds
290° at 12 knots 10 miles
  • Broken at 4,800' AGL
  • Overcast at 5,500' AGL
Temperatures Readings
Current 0°C / 32°F
Dewpoint -7°C / 19°F
Humidity 60%
Altimeter 30.04" Hg
Pressure 1017 hPa
Elevation 2224
METAR KDUB 181255Z AUTO 29012KT 10SM BKN048 OVC055 00/M07 A3004 RMK AO2
Observed Flight Rules
Dec-18 @ 12:55 UTC
(20 minutes ago)
VFR
Wind Visibility
290° at 12 knots 10 miles
Clouds
  • Broken at 4,800' AGL
  • Overcast at 5,500' AGL
Temperature Dewpoint
0°C / 32°F -7°C / 19°F
Humidity Altimeter Pressure
60% 30.04" Hg 1017 hPa